Time;durP1;ratioP1;P1;durP2;ratioP2;P2;SDS_P1;SDS_P2;PMS_P1;PMS_P2;Temp;Humidity;BMP_temperature;BMP_pressure;BME280_temperature;BME280_humidity;BME280_pressure;Samples;Min_cycle;Max_cycle;Signal;HPM_P1;HPM_P2
2023/02/14 00:01:07;;;;;;;8.90;4.30;;;;;;;3.10;75.90;99487.15;79580;1298;3019199;-61
2023/02/14 00:03:38;;;;;;;11.90;5.10;;;;;;;2.87;75.06;99482.46;78344;1302;3069432;-61
2023/02/14 00:06:09;;;;;;;10.50;5.20;;;;;;;2.35;76.71;99480.47;79686;1298;3012925;-61
2023/02/14 00:08:42;;;;;;;10.80;5.30;;;;;;;2.11;77.98;99467.95;78324;1293;3049894;-61
2023/02/14 00:11:10;;;;;;;12.30;5.70;;;;;;;1.94;78.60;99475.64;79645;1295;3011906;-61
2023/02/14 00:13:38;;;;;;;10.40;5.40;;;;;;;1.98;78.18;99468.44;78323;1298;3051985;-61
2023/02/14 00:16:05;;;;;;;11.40;5.10;;;;;;;1.78;78.85;99461.34;79558;1306;3018963;-61
2023/02/14 00:19:18;;;;;;;8.80;5.40;;;;;;;1.50;80.59;99452.17;79562;1292;3013161;-61
2023/02/14 00:21:21;;;;;;;11.30;5.30;;;;;;;1.62;80.22;99443.27;78241;1306;3050485;-61
2023/02/14 00:23:50;;;;;;;7.10;3.10;;;;;;;1.57;80.59;99438.52;79481;1306;3011755;-62
2023/02/14 00:26:16;;;;;;;9.50;4.10;;;;;;;1.96;80.81;99432.72;79701;1292;3011799;-61
2023/02/14 00:28:45;;;;;;;11.20;4.30;;;;;;;2.38;79.30;99433.16;78244;1298;3049527;-62
2023/02/14 00:31:11;;;;;;;6.90;4.10;;;;;;;2.42;78.65;99435.13;79522;1298;3014708;-62
2023/02/14 00:33:38;;;;;;;8.50;4.90;;;;;;;2.26;79.04;99441.11;79495;1308;3012929;-62
2023/02/14 00:36:08;;;;;;;11.50;6.00;;;;;;;2.21;79.25;99434.33;78129;1301;3051206;-61
2023/02/14 00:38:36;;;;;;;12.40;5.60;;;;;;;2.00;79.96;99425.36;82059;1295;3011450;-61
2023/02/14 00:41:05;;;;;;;11.30;5.90;;;;;;;1.88;80.12;99425.16;81629;1295;3011601;-61
2023/02/14 00:43:32;;;;;;;10.40;5.40;;;;;;;1.86;80.48;99417.62;82151;1295;3018415;-61
2023/02/14 00:45:58;;;;;;;10.90;5.40;;;;;;;1.73;81.00;99419.33;82146;1295;3011074;-61
2023/02/14 00:48:26;;;;;;;12.40;5.60;;;;;;;1.76;81.06;99400.95;80901;1295;3026588;-61
2023/02/14 00:53:13;;;;;;;10.30;5.90;;;;;;;2.07;82.15;99398.77;80263;1299;3013335;-61
2023/02/14 00:55:40;;;;;;;11.20;5.10;;;;;;;2.53;79.81;99404.58;78972;1301;3012854;-60
2023/02/14 00:58:08;;;;;;;12.10;5.80;;;;;;;2.75;78.18;99389.23;79048;1301;3011489;-60
2023/02/14 01:00:36;;;;;;;14.50;6.00;;;;;;;2.31;79.44;99397.92;77868;1304;3052718;-61
2023/02/14 01:03:03;;;;;;;12.90;6.30;;;;;;;2.21;79.81;99395.61;79075;1303;3013177;-61
2023/02/14 01:05:29;;;;;;;9.80;5.40;;;;;;;1.84;81.65;99388.29;77679;1296;4995817;-60
2023/02/14 01:07:57;;;;;;;9.90;5.90;;;;;;;1.64;82.79;99381.73;78032;1297;3026877;-60
2023/02/14 01:10:24;;;;;;;15.30;6.60;;;;;;;1.57;83.76;99368.43;79261;1295;3013453;-61
2023/02/14 01:12:51;;;;;;;12.20;6.50;;;;;;;1.59;83.58;99362.36;79214;1299;3011668;-60
2023/02/14 01:15:19;;;;;;;8.30;4.30;;;;;;;1.59;83.61;99372.18;78088;1298;3028961;-60
2023/02/14 01:17:50;;;;;;;9.20;4.40;;;;;;;1.93;83.57;99364.23;79258;1300;3011615;-60
2023/02/14 01:20:18;;;;;;;7.80;4.50;;;;;;;2.54;81.97;99362.16;78021;1300;3051960;-61
2023/02/14 01:22:46;;;;;;;12.70;5.70;;;;;;;2.74;80.13;99350.88;79345;1295;3013229;-61
2023/02/14 01:25:12;;;;;;;11.60;5.90;;;;;;;2.71;79.44;99349.91;79296;1295;3011514;-60
2023/02/14 01:27:40;;;;;;;11.90;6.10;;;;;;;2.30;80.45;99354.57;78115;1299;3050355;-61
2023/02/14 01:30:08;;;;;;;15.00;6.00;;;;;;;1.86;82.66;99345.95;79260;1300;3013522;-60
2023/02/14 01:32:34;;;;;;;12.60;6.00;;;;;;;2.03;81.68;99339.27;79324;1299;3013243;-61
2023/02/14 01:35:18;;;;;;;14.10;6.30;;;;;;;1.76;83.41;99337.23;78308;1296;3050357;-61
2023/02/14 01:37:48;;;;;;;12.50;6.10;;;;;;;1.52;84.71;99338.01;79544;1297;3011567;-61
2023/02/14 01:40:17;;;;;;;6.10;3.20;;;;;;;1.38;86.26;99343.70;78379;1291;3025805;-61
2023/02/14 01:42:46;;;;;;;7.70;4.20;;;;;;;2.49;82.88;99333.46;79597;1295;3011869;-60
2023/02/14 01:45:20;;;;;;;8.50;4.30;;;;;;;2.85;81.18;99334.96;78947;1297;3013187;-60
2023/02/14 01:47:52;;;;;;;11.30;6.00;;;;;;;2.43;81.76;99339.17;79581;1295;3012940;-60
2023/02/14 01:50:27;;;;;;;11.50;5.80;;;;;;;2.39;82.09;99334.77;78116;1297;3052753;-61
2023/02/14 01:53:17;;;;;;;12.60;5.30;;;;;;;1.99;83.00;99329.86;78336;1296;3069371;-61
2023/02/14 01:55:47;;;;;;;13.30;6.70;;;;;;;2.04;83.47;99321.59;78415;1295;3050784;-60
2023/02/14 01:58:18;;;;;;;12.30;5.70;;;;;;;1.94;83.07;99316.52;79606;1294;3012121;-60
2023/02/14 02:00:58;;;;;;;13.30;6.30;;;;;;;1.57;85.25;99316.84;78305;1297;3050679;-60
2023/02/14 02:03:36;;;;;;;10.00;4.60;;;;;;;1.73;85.54;99313.46;78341;1297;3053468;-61
2023/02/14 02:06:08;;;;;;;6.10;3.30;;;;;;;2.20;84.48;99306.99;78324;1297;3050598;-61
2023/02/14 02:08:49;;;;;;;11.60;5.30;;;;;;;2.82;82.09;99307.38;79004;1297;3011884;-61
2023/02/14 02:11:17;;;;;;;11.60;5.70;;;;;;;2.69;81.77;99302.07;78383;1297;3053190;-62
2023/02/14 02:13:53;;;;;;;12.40;5.60;;;;;;;2.60;81.45;99302.50;79006;1297;3011661;-61
2023/02/14 02:16:33;;;;;;;12.40;6.00;;;;;;;2.53;81.55;99298.91;79577;1296;3013743;-61
2023/02/14 02:19:21;;;;;;;13.20;6.40;;;;;;;2.24;82.42;99287.50;78358;1294;3051401;-61
2023/02/14 02:22:25;;;;;;;12.20;5.80;;;;;;;2.04;83.56;99284.48;78432;1293;3057278;-61
2023/02/14 02:24:59;;;;;;;11.40;6.40;;;;;;;1.93;83.85;99274.93;78250;1296;3048290;-61
2023/02/14 02:27:54;;;;;;;11.40;5.50;;;;;;;1.80;84.58;99276.33;79565;1292;3011573;-61
2023/02/14 02:30:37;;;;;;;8.00;4.50;;;;;;;1.80;85.38;99270.62;78271;1297;3050769;-60
2023/02/14 02:33:17;;;;;;;9.80;4.90;;;;;;;2.22;84.68;99266.81;78360;1297;3051695;-61
2023/02/14 02:36:11;;;;;;;12.10;5.60;;;;;;;2.92;82.02;99256.02;78364;1297;3053434;-60
2023/02/14 02:39:09;;;;;;;10.40;5.40;;;;;;;3.09;80.85;99244.03;77999;1306;3068303;-62
2023/02/14 02:42:05;;;;;;;14.10;6.70;;;;;;;2.94;80.42;99247.98;78235;1293;3051160;-62
2023/02/14 02:45:11;;;;;;;13.10;6.30;;;;;;;2.59;81.16;99246.69;78363;1293;3057550;-62
2023/02/14 02:48:14;;;;;;;13.90;6.80;;;;;;;2.35;81.93;99240.17;77925;1301;3050103;-62
2023/02/14 02:53:42;;;;;;;11.20;6.30;;;;;;;2.04;83.69;99230.90;78375;1293;3050178;-61
2023/02/14 02:59:17;;;;;;;12.90;6.40;;;;;;;1.95;84.36;99217.86;78327;1296;3052251;-63
2023/02/14 03:02:15;;;;;;;11.20;5.50;;;;;;;3.17;83.01;99211.04;78322;1295;3069283;-62
2023/02/14 03:04:55;;;;;;;18.30;7.10;;;;;;;3.15;80.19;99211.13;78422;1294;3050574;-62
2023/02/14 03:07:40;;;;;;;17.00;7.60;;;;;;;3.22;79.89;99206.23;78411;1295;3056998;-63
2023/02/14 03:10:16;;;;;;;10.70;5.90;;;;;;;2.82;80.68;99203.92;78331;1294;3050067;-62
2023/02/14 03:12:50;;;;;;;11.90;6.80;;;;;;;2.70;81.26;99201.20;78990;1297;3013552;-61
2023/02/14 03:15:44;;;;;;;15.70;7.50;;;;;;;2.40;82.44;99199.04;79536;1297;3013361;-61
2023/02/14 03:21:36;;;;;;;19.20;7.60;;;;;;;2.08;84.01;99193.81;78369;1297;3052934;-62
2023/02/14 03:24:15;;;;;;;10.00;5.20;;;;;;;1.79;85.37;99190.67;79443;1294;3011645;-60
2023/02/14 03:26:52;;;;;;;10.70;5.70;;;;;;;2.61;84.61;99173.80;78328;1297;3069471;-61
2023/02/14 03:29:32;;;;;;;14.30;7.20;;;;;;;3.07;81.70;99170.05;78331;1297;3051412;-61
2023/02/14 03:32:14;;;;;;;14.90;7.30;;;;;;;3.02;80.93;99169.35;80873;1293;3056770;-61
2023/02/14 03:34:48;;;;;;;17.00;8.40;;;;;;;2.65;81.92;99165.73;80745;1295;3049257;-62
2023/02/14 03:37:18;;;;;;;14.00;7.30;;;;;;;2.53;82.88;99159.05;82097;1294;3011287;-62
2023/02/14 03:40:22;;;;;;;17.30;7.60;;;;;;;2.32;83.44;99162.65;80760;1293;3049863;-61
2023/02/14 03:42:57;;;;;;;;;;;;;;;2.10;84.61;99151.42;80762;1295;3052364;-61
2023/02/14 03:45:32;;;;;;;14.10;7.00;;;;;;;2.06;84.81;99152.55;81556;1294;3011904;-61
2023/02/14 03:48:01;;;;;;;19.10;10.00;;;;;;;1.99;85.36;99143.48;82047;1294;3011250;-62
2023/02/14 03:50:29;;;;;;;17.40;7.80;;;;;;;1.88;86.16;99147.77;80884;1294;3068792;-61
2023/02/14 03:52:56;;;;;;;16.50;8.10;;;;;;;2.56;85.24;99136.30;82077;1292;3013013;-61
2023/02/14 03:55:54;;;;;;;16.00;8.70;;;;;;;2.83;83.18;99129.16;82077;1292;3011209;-61
2023/02/14 03:58:25;;;;;;;19.40;9.70;;;;;;;2.90;81.94;99120.98;80767;1295;3053386;-62
2023/02/14 04:00:55;;;;;;;27.30;11.10;;;;;;;2.76;82.91;99122.81;82118;1297;3011349;-61
2023/02/14 04:03:23;;;;;;;19.10;9.00;;;;;;;2.49;83.34;99112.50;80851;1295;3052796;-61
2023/02/14 04:05:51;;;;;;;22.50;10.70;;;;;;;2.36;83.88;99112.73;82173;1292;3013233;-61
2023/02/14 04:08:22;;;;;;;22.00;10.40;;;;;;;2.19;84.63;99113.61;82156;1294;3011220;-62
2023/02/14 04:10:50;;;;;;;21.80;11.50;;;;;;;1.92;86.11;99106.71;80938;1292;3056802;-61
2023/02/14 04:13:18;;;;;;;16.90;6.60;;;;;;;1.94;86.68;99104.90;82166;1292;3012643;-62
2023/02/14 04:15:44;;;;;;;14.70;7.80;;;;;;;2.40;85.73;99108.45;82137;1293;3011441;-62
2023/02/14 04:20:58;;;;;;;21.70;9.40;;;;;;;3.05;82.21;99104.86;80937;1292;3051423;-62
2023/02/14 04:23:25;;;;;;;21.30;10.40;;;;;;;3.01;81.88;99100.88;82167;1294;3011284;-61
2023/02/14 04:25:52;;;;;;;26.10;12.10;;;;;;;2.63;82.84;99092.48;82152;1292;3011162;-62
2023/02/14 04:28:21;;;;;;;24.50;11.80;;;;;;;2.59;83.43;99099.20;80920;1293;3047977;-62
2023/02/14 04:30:47;;;;;;;20.40;11.00;;;;;;;2.38;83.68;99092.09;82192;1292;3018016;-61
2023/02/14 04:33:14;;;;;;;28.10;13.60;;;;;;;2.10;85.15;99094.58;82154;1292;3011346;-61
2023/02/14 04:35:42;;;;;;;27.10;13.50;;;;;;;1.98;86.26;99100.29;80907;1297;3026545;-61
2023/02/14 04:38:09;;;;;;;16.80;9.40;;;;;;;2.12;86.29;99097.80;82187;1294;3012653;-61
2023/02/14 04:40:35;;;;;;;19.20;8.70;;;;;;;2.62;84.99;99102.88;82168;1293;3011200;-61
2023/02/14 04:43:03;;;;;;;22.00;9.70;;;;;;;3.15;82.99;99105.37;80893;1292;3025850;-61
2023/02/14 04:45:30;;;;;;;21.60;10.70;;;;;;;3.24;81.70;99111.48;82199;1293;3017965;-61
2023/02/14 04:47:56;;;;;;;23.10;11.50;;;;;;;2.83;82.48;99119.48;82180;1293;3011155;-61
2023/02/14 04:50:25;;;;;;;30.60;12.40;;;;;;;2.48;84.53;99115.98;80902;1297;3026188;-62
2023/02/14 04:52:52;;;;;;;26.00;12.90;;;;;;;2.48;84.33;99122.38;82168;1297;3019077;-61
2023/02/14 04:55:19;;;;;;;27.30;12.80;;;;;;;2.37;85.09;99109.78;82131;1292;3011130;-61
2023/02/14 04:57:47;;;;;;;24.20;13.20;;;;;;;2.25;85.14;99112.93;80899;1293;3026520;-61
2023/02/14 05:00:15;;;;;;;22.20;11.40;;;;;;;2.07;85.85;99115.04;82156;1295;3011310;-60
2023/02/14 05:02:42;;;;;;;19.50;8.60;;;;;;;1.96;86.80;99109.54;82162;1292;3011469;-61
2023/02/14 05:05:10;;;;;;;12.10;6.70;;;;;;;2.69;85.62;99107.15;80904;1293;3051338;-61
2023/02/14 05:07:37;;;;;;;13.50;6.70;;;;;;;3.07;82.93;99109.30;82204;1292;3012442;-62
2023/02/14 05:10:04;;;;;;;15.10;8.20;;;;;;;3.16;81.67;99110.19;82129;1294;3011197;-62
2023/02/14 05:12:33;;;;;;;15.50;8.10;;;;;;;2.79;82.05;99115.63;80894;1292;3047170;-62
2023/02/14 05:14:59;;;;;;;13.70;7.10;;;;;;;2.37;83.60;99113.93;82118;1292;3012503;-62
2023/02/14 05:17:26;;;;;;;13.10;7.20;;;;;;;2.29;83.94;99110.03;82189;1293;3011269;-64
2023/02/14 05:19:54;;;;;;;13.10;6.20;;;;;;;2.05;84.75;99110.09;80920;1297;3026647;-62
2023/02/14 05:22:21;;;;;;;11.80;6.40;;;;;;;1.80;85.78;99110.36;82196;1294;3013041;-62
2023/02/14 05:24:47;;;;;;;10.20;6.50;;;;;;;1.62;87.11;99112.78;82133;1293;3011170;-62
2023/02/14 05:27:15;;;;;;;7.60;4.10;;;;;;;1.51;87.61;99119.14;80873;1293;3026095;-62
2023/02/14 05:29:42;;;;;;;8.10;4.60;;;;;;;2.03;87.21;99111.20;82091;1294;3012608;-63
2023/02/14 05:32:14;;;;;;;9.90;4.70;;;;;;;2.61;83.99;99097.58;80842;1294;3052951;-63
2023/02/14 05:34:41;;;;;;;6.20;3.60;;;;;;;2.58;83.38;99103.54;82125;1293;3013066;-62
2023/02/14 05:37:07;;;;;;;7.70;4.40;;;;;;;2.42;83.43;99098.89;82091;1294;3010986;-62
2023/02/14 05:39:36;;;;;;;7.30;4.40;;;;;;;2.03;85.04;99100.50;80798;1294;3026440;-63
2023/02/14 05:42:02;;;;;;;7.30;3.70;;;;;;;1.95;85.50;99098.30;82090;1294;3012796;-61
2023/02/14 05:44:35;;;;;;;7.60;4.30;;;;;;;1.74;85.99;99100.17;80814;1294;3050584;-62
2023/02/14 05:47:02;;;;;;;9.10;5.50;;;;;;;1.66;86.86;99089.20;82115;1297;3012882;-62
2023/02/14 05:49:28;;;;;;;5.50;2.80;;;;;;;1.53;87.43;99090.10;82039;1297;3011471;-62
2023/02/14 05:51:56;;;;;;;6.30;3.10;;;;;;;1.95;87.15;99088.65;80806;1293;3025928;-62
2023/02/14 05:54:24;;;;;;;4.50;3.00;;;;;;;2.44;85.27;99090.52;82090;1295;3013597;-64
2023/02/14 05:56:51;;;;;;;5.40;3.20;;;;;;;2.55;84.09;99094.13;82103;1294;3011199;-65
2023/02/14 05:59:19;;;;;;;6.50;3.70;;;;;;;2.04;85.21;99088.71;80832;1294;3048945;-66
2023/02/14 06:01:46;;;;;;;6.70;3.70;;;;;;;1.98;85.42;99092.70;82092;1297;3018177;-63
2023/02/14 06:04:12;;;;;;;7.00;4.50;;;;;;;1.88;85.74;99094.23;82097;1293;3011427;-63
2023/02/14 06:06:40;;;;;;;6.40;3.50;;;;;;;1.89;86.27;99094.02;80866;1293;3026293;-64
2023/02/14 06:09:07;;;;;;;6.30;4.50;;;;;;;1.70;86.11;99098.39;82069;1297;3012882;-64
2023/02/14 06:11:33;;;;;;;6.80;4.10;;;;;;;1.52;86.84;99099.29;82092;1294;3011451;-64
2023/02/14 06:14:02;;;;;;;4.60;2.50;;;;;;;1.66;86.88;99084.87;80836;1293;3049403;-64
2023/02/14 06:16:30;;;;;;;5.30;2.90;;;;;;;2.19;86.02;99086.48;82092;1294;3011404;-64
2023/02/14 06:18:57;;;;;;;7.00;4.10;;;;;;;2.62;83.63;99085.44;82077;1294;3011455;-64
2023/02/14 06:21:25;;;;;;;6.00;3.60;;;;;;;2.69;82.99;99087.80;80827;1294;3052232;-65
2023/02/14 06:23:52;;;;;;;5.10;3.40;;;;;;;2.48;82.95;99083.30;82121;1293;3018291;-64
2023/02/14 06:26:19;;;;;;;7.70;4.20;;;;;;;2.29;83.39;99088.27;82079;1293;3011368;-64
2023/02/14 06:28:52;;;;;;;6.80;3.70;;;;;;;1.97;83.92;99097.21;80850;1294;3049296;-64
2023/02/14 06:31:19;;;;;;;8.00;4.20;;;;;;;1.75;85.14;99085.64;82075;1295;3011400;-64
2023/02/14 06:33:47;;;;;;;6.80;4.00;;;;;;;1.74;85.18;99088.08;80845;1294;3050925;-64
2023/02/14 06:36:14;;;;;;;6.10;3.60;;;;;;;1.52;86.18;99083.90;82157;1294;3018033;-64
2023/02/14 06:38:41;;;;;;;4.30;2.70;;;;;;;1.42;86.74;99089.02;82115;1294;3011323;-65
2023/02/14 06:41:10;;;;;;;4.60;2.50;;;;;;;1.93;86.23;99074.88;80835;1293;3026264;-64
2023/02/14 06:43:37;;;;;;;4.30;2.30;;;;;;;2.39;83.90;99073.77;82137;1294;3013220;-64
2023/02/14 06:46:04;;;;;;;5.00;2.40;;;;;;;2.41;82.90;99079.05;82088;1294;3011559;-64
2023/02/14 06:48:32;;;;;;;5.00;2.80;;;;;;;2.22;83.07;99074.65;80835;1297;3050764;-64
2023/02/14 06:50:58;;;;;;;5.40;2.70;;;;;;;1.96;83.84;99083.28;82113;1295;3018100;-65
2023/02/14 06:53:26;;;;;;;3.80;2.30;;;;;;;1.70;84.85;99077.48;82090;1293;3011066;-65
2023/02/14 06:55:54;;;;;;;3.30;2.40;;;;;;;1.53;85.69;99084.55;80832;1295;3049123;-64
2023/02/14 06:58:21;;;;;;;4.20;2.50;;;;;;;1.46;86.24;99072.00;82105;1294;3012837;-63
2023/02/14 07:00:48;;;;;;;4.20;2.10;;;;;;;1.42;86.85;99075.91;82108;1293;3011179;-63
2023/02/14 07:03:16;;;;;;;2.80;1.90;;;;;;;1.98;86.03;99073.16;80839;1297;3026432;-64
2023/02/14 07:05:44;;;;;;;3.80;2.10;;;;;;;2.47;83.72;99076.09;82126;1294;3012753;-63
2023/02/14 07:08:12;;;;;;;2.00;1.40;;;;;;;2.47;82.53;99068.13;82077;1294;3011472;-62
2023/02/14 07:10:40;;;;;;;2.90;2.20;;;;;;;2.16;83.06;99080.36;80841;1295;3049071;-62
2023/02/14 07:13:07;;;;;;;4.00;2.80;;;;;;;1.85;84.32;99080.50;82128;1295;3012616;-64
2023/02/14 07:15:37;;;;;;;7.10;3.10;;;;;;;1.64;84.72;99080.97;82106;1294;3011311;-66
2023/02/14 07:18:07;;;;;;;3.80;2.80;;;;;;;1.39;85.89;99075.31;80853;1294;3051138;-63
2023/02/14 07:20:34;;;;;;;4.30;3.30;;;;;;;1.42;86.08;99084.21;82073;1295;3011382;-62
2023/02/14 07:23:04;;;;;;;3.30;2.40;;;;;;;1.33;86.55;99076.02;81537;1294;3011297;-64
2023/02/14 07:25:31;;;;;;;3.50;2.30;;;;;;;1.81;85.90;99069.20;82148;1295;3012961;-64
2023/02/14 07:27:58;;;;;;;5.60;3.50;;;;;;;2.26;83.98;99070.55;82091;1295;3011177;-63
2023/02/14 07:30:26;;;;;;;6.60;4.10;;;;;;;2.27;83.40;99074.16;80791;1294;3049312;-64
2023/02/14 07:32:54;;;;;;;5.30;3.40;;;;;;;1.91;84.12;99073.05;82103;1297;3011528;-63
2023/02/14 07:35:22;;;;;;;5.70;3.50;;;;;;;1.78;84.56;99073.10;81983;1297;3011470;-62
2023/02/14 07:37:58;;;;;;;6.40;3.90;;;;;;;1.53;85.43;99086.99;80809;1294;3050066;-62
2023/02/14 07:40:27;;;;;;;4.90;3.90;;;;;;;1.38;86.30;99067.92;82079;1292;3011338;-62
2023/02/14 07:42:58;;;;;;;6.80;4.40;;;;;;;1.32;86.50;99072.94;80842;1294;3047794;-63
2023/02/14 07:45:25;;;;;;;6.30;3.20;;;;;;;1.19;87.86;99071.07;82085;1294;3012901;-62
2023/02/14 07:47:52;;;;;;;6.30;3.70;;;;;;;1.77;87.14;99066.05;82110;1294;3011286;-63
2023/02/14 07:50:21;;;;;;;6.50;3.60;;;;;;;2.31;84.51;99065.71;80871;1294;3050843;-64
2023/02/14 07:52:48;;;;;;;7.40;4.60;;;;;;;2.23;83.71;99066.13;82154;1295;3011264;-63
2023/02/14 07:55:15;;;;;;;7.10;4.10;;;;;;;2.12;83.97;99060.62;82105;1294;3011390;-62
2023/02/14 07:57:43;;;;;;;6.30;4.40;;;;;;;1.92;84.38;99059.36;80840;1295;3048917;-62
2023/02/14 08:00:10;;;;;;;10.00;5.20;;;;;;;1.57;85.46;99055.63;82130;1293;3012938;-62
2023/02/14 08:02:42;;;;;;;9.00;5.60;;;;;;;1.56;86.36;99051.88;80843;1294;3052995;-61
2023/02/14 08:05:08;;;;;;;7.00;4.50;;;;;;;1.51;86.03;99061.14;82122;1293;3018883;-61
2023/02/14 08:07:35;;;;;;;9.80;5.80;;;;;;;1.37;86.84;99063.98;82072;1293;3011333;-61
2023/02/14 08:10:03;;;;;;;7.60;4.10;;;;;;;1.26;87.67;99068.61;80825;1295;3027634;-62
2023/02/14 08:18:14;;;;;;;7.90;4.20;;;;;;;2.30;83.09;99058.66;80833;1294;3052326;-61
2023/02/14 08:20:42;;;;;;;7.70;4.20;;;;;;;2.25;83.26;99070.41;82123;1297;3012476;-61
2023/02/14 08:23:13;;;;;;;7.80;4.90;;;;;;;1.97;84.01;99068.38;81584;1294;3011280;-61
2023/02/14 08:25:40;;;;;;;8.70;4.60;;;;;;;1.77;84.83;99073.48;82115;1297;3013501;-61
2023/02/14 08:28:07;;;;;;;10.50;6.30;;;;;;;1.74;85.39;99072.71;82114;1294;3011153;-61
2023/02/14 08:30:36;;;;;;;7.20;5.40;;;;;;;1.65;85.46;99075.73;80763;1297;3055992;-61
2023/02/14 08:33:04;;;;;;;9.30;4.90;;;;;;;1.39;86.72;99085.34;82040;1295;3013025;-61
2023/02/14 08:35:34;;;;;;;6.60;3.80;;;;;;;1.61;87.11;99082.42;81482;1295;3011463;-61
2023/02/14 08:38:01;;;;;;;6.20;3.80;;;;;;;2.48;84.89;99069.13;82057;1297;3012894;-61
2023/02/14 08:40:28;;;;;;;8.20;4.30;;;;;;;2.70;82.11;99076.16;82107;1295;3011176;-62
2023/02/14 08:42:56;;;;;;;9.40;5.00;;;;;;;2.45;82.74;99076.48;80826;1295;3068623;-61
2023/02/14 08:45:23;;;;;;;11.50;6.70;;;;;;;2.20;83.37;99073.52;82111;1294;3018879;-61
2023/02/14 08:47:49;;;;;;;11.60;6.30;;;;;;;1.95;84.19;99075.02;82093;1294;3011373;-61
2023/02/14 08:50:18;;;;;;;8.60;4.70;;;;;;;1.97;84.45;99071.63;80835;1294;3026139;-61
2023/02/14 08:52:44;;;;;;;8.70;4.70;;;;;;;1.94;84.47;99067.10;82124;1294;3018335;-61
2023/02/14 08:55:12;;;;;;;8.70;4.90;;;;;;;1.83;84.84;99077.44;82107;1297;3011288;-61
2023/02/14 08:57:40;;;;;;;7.30;4.80;;;;;;;1.71;85.40;99076.11;80868;1295;3069006;-61
2023/02/14 09:00:08;;;;;;;4.20;2.90;;;;;;;1.67;85.89;99082.27;82125;1294;3018300;-61
2023/02/14 09:02:40;;;;;;;6.10;3.30;;;;;;;2.43;84.43;99065.81;80879;1297;3050988;-61
2023/02/14 09:05:09;;;;;;;8.20;4.60;;;;;;;3.31;81.23;99071.20;82131;1295;3013063;-61
2023/02/14 09:07:36;;;;;;;8.30;4.60;;;;;;;2.95;80.22;99063.70;82083;1292;3011212;-60
2023/02/14 09:10:04;;;;;;;7.50;4.10;;;;;;;2.65;81.64;99067.52;80841;1297;3052854;-61
2023/02/14 09:12:31;;;;;;;6.60;3.20;;;;;;;2.49;82.50;99069.44;82088;1294;3013288;-60
2023/02/14 09:14:58;;;;;;;7.50;4.30;;;;;;;2.42;82.43;99064.14;82088;1295;3011322;-60
2023/02/14 09:17:26;;;;;;;6.00;3.60;;;;;;;2.19;83.56;99071.30;80838;1294;3048056;-61
2023/02/14 09:19:52;;;;;;;5.40;3.60;;;;;;;2.24;83.79;99069.41;82106;1294;3013282;-60
2023/02/14 09:22:24;;;;;;;4.90;3.20;;;;;;;2.02;84.49;99069.92;80820;1294;3052172;-60
2023/02/14 09:24:51;;;;;;;6.70;4.00;;;;;;;2.00;84.80;99059.31;82086;1294;3012571;-60
2023/02/14 09:27:17;;;;;;;3.70;2.30;;;;;;;2.13;84.51;99060.44;82097;1294;3011278;-60
2023/02/14 09:29:45;;;;;;;4.20;2.60;;;;;;;2.69;83.73;99065.83;80781;1295;3026045;-62
2023/02/14 09:32:12;;;;;;;4.10;2.20;;;;;;;3.21;80.89;99063.61;82082;1297;3018624;-61
2023/02/14 09:34:39;;;;;;;4.50;2.70;;;;;;;3.12;80.61;99060.13;82003;1295;3011367;-61
2023/02/14 09:37:09;;;;;;;3.70;2.60;;;;;;;3.01;80.76;99067.80;80864;1296;3026469;-61
2023/02/14 09:39:37;;;;;;;5.00;2.70;;;;;;;2.93;80.74;99068.46;82105;1297;3011145;-61
2023/02/14 09:42:33;;;;;;;6.90;3.50;;;;;;;2.83;80.98;99075.36;81615;1295;3011801;-61
2023/02/14 09:45:04;;;;;;;4.20;2.40;;;;;;;2.67;81.72;99069.02;80857;1295;3051527;-62
2023/02/14 09:48:05;;;;;;;5.90;2.90;;;;;;;2.40;82.62;99072.85;82105;1295;3011406;-61
2023/02/14 09:50:46;;;;;;;7.10;3.00;;;;;;;2.38;82.79;99067.90;80852;1294;3047555;-61
2023/02/14 09:53:14;;;;;;;6.60;3.00;;;;;;;2.41;83.31;99070.56;80709;1294;3053146;-61
2023/02/14 09:55:55;;;;;;;3.90;2.00;;;;;;;2.59;82.79;99066.35;82133;1296;3012627;-61
2023/02/14 09:58:28;;;;;;;3.30;2.10;;;;;;;3.36;80.73;99067.75;80759;1299;3051953;-61
2023/02/14 10:01:09;;;;;;;5.10;2.50;;;;;;;3.77;78.45;99066.18;80761;1295;3069192;-60
2023/02/14 10:03:46;;;;;;;4.80;2.70;;;;;;;3.77;77.85;99064.60;80846;1298;3051839;-61
2023/02/14 10:06:50;;;;;;;4.30;2.30;;;;;;;3.51;78.16;99070.84;81525;1294;3011475;-61
2023/02/14 10:10:12;;;;;;;4.60;2.60;;;;;;;3.24;78.18;99083.60;80737;1295;3056117;-61
2023/02/14 10:12:45;;;;;;;3.20;2.60;;;;;;;3.01;79.41;99078.20;80599;1293;3049946;-61
2023/02/14 10:15:16;;;;;;;3.60;2.50;;;;;;;2.94;79.49;99073.23;82101;1294;3011040;-60
2023/02/14 10:17:47;;;;;;;6.00;2.70;;;;;;;2.87;80.03;99065.38;80770;1296;3049197;-61
2023/02/14 10:20:20;;;;;;;7.10;3.30;;;;;;;2.94;79.51;99080.19;82080;1295;3012326;-61
2023/02/14 10:22:54;;;;;;;4.00;2.50;;;;;;;2.97;79.46;99070.38;80750;1299;3051491;-58
2023/02/14 10:25:25;;;;;;;;;;;;;;;2.93;79.29;99072.45;82026;1294;3011443;-58
2023/02/14 10:27:54;;;;;;;4.80;2.70;;;;;;;2.89;79.44;99076.90;80787;1294;3050818;-58
2023/02/14 10:30:22;;;;;;;8.50;3.40;;;;;;;2.83;79.44;99072.42;82015;1295;3011276;-59
2023/02/14 10:33:10;;;;;;;7.20;3.70;;;;;;;2.91;79.15;99078.02;81604;1294;3011232;-58
2023/02/14 10:35:44;;;;;;;7.00;2.60;;;;;;;2.83;78.68;99073.13;80843;1295;3053415;-58
2023/02/14 10:38:47;;;;;;;4.80;2.60;;;;;;;3.55;77.03;99079.67;81540;1297;3011384;-57
2023/02/14 10:41:15;;;;;;;8.80;2.90;;;;;;;4.10;74.63;99074.92;80821;1295;3049230;-58
2023/02/14 10:43:47;;;;;;;6.10;2.60;;;;;;;4.20;73.49;99075.42;82107;1295;3013049;-59
2023/02/14 10:46:21;;;;;;;4.10;2.50;;;;;;;4.09;73.11;99069.44;80795;1295;3070244;-58
2023/02/14 10:49:20;;;;;;;2.70;2.00;;;;;;;4.14;72.97;99072.34;82094;1295;3011149;-58
2023/02/14 10:52:03;;;;;;;3.60;2.10;;;;;;;3.67;73.51;99060.84;80741;1295;3056951;-58
2023/02/14 10:54:36;;;;;;;;;;;;;;;3.60;73.51;99054.20;80779;1295;3048752;-58
2023/02/14 10:57:06;;;;;;;4.70;2.20;;;;;;;3.56;73.60;99060.23;82031;1295;3011297;-58
2023/02/14 10:59:43;;;;;;;3.40;2.10;;;;;;;3.50;73.69;99053.39;80744;1295;3049373;-58
2023/02/14 11:02:12;;;;;;;5.30;2.10;;;;;;;3.58;73.26;99049.61;82072;1295;3011178;-59
2023/02/14 11:04:41;;;;;;;5.60;2.10;;;;;;;3.65;73.01;99050.02;80684;1300;3052343;-58
2023/02/14 11:07:14;;;;;;;4.80;2.00;;;;;;;3.61;72.20;99041.34;82080;1295;3011134;-58
2023/02/14 11:09:43;;;;;;;3.70;1.90;;;;;;;3.67;71.64;99043.00;80841;1295;3056577;-59
2023/02/14 11:12:10;;;;;;;4.00;2.50;;;;;;;3.70;71.50;99032.31;82070;1296;3012759;-60
2023/02/14 11:14:37;;;;;;;5.30;2.10;;;;;;;3.66;72.29;99032.32;82027;1298;3011600;-58
2023/02/14 11:17:34;;;;;;;4.70;2.40;;;;;;;3.80;71.29;99026.23;80863;1297;3052511;-59
2023/02/14 11:20:31;;;;;;;5.80;2.10;;;;;;;3.92;70.93;99030.63;80807;1296;3052707;-59
2023/02/14 11:22:59;;;;;;;2.70;1.70;;;;;;;4.03;70.44;99024.60;80775;1295;3069972;-58
2023/02/14 11:25:29;;;;;;;6.10;1.90;;;;;;;3.83;69.86;99043.77;82116;1296;3013315;-58
2023/02/14 11:28:03;;;;;;;5.20;2.10;;;;;;;3.58;70.74;99034.52;80705;1293;3051373;-58
2023/02/14 11:30:33;;;;;;;;;;;;;;;3.59;70.46;99031.17;82036;1295;3011266;-58
2023/02/14 11:33:03;;;;;;;3.70;1.70;;;;;;;3.59;70.04;99035.35;80751;1295;3049243;-59
2023/02/14 11:35:33;;;;;;;3.70;2.10;;;;;;;3.62;69.75;99037.48;82058;1298;3011748;-59
2023/02/14 11:38:02;;;;;;;3.70;1.60;;;;;;;3.63;69.68;99030.38;80759;1298;3051947;-59
2023/02/14 11:40:31;;;;;;;8.10;1.90;;;;;;;3.83;68.78;99032.35;82055;1295;3012781;-59
2023/02/14 11:42:58;;;;;;;3.10;1.60;;;;;;;4.00;68.41;99028.88;82114;1294;3010936;-59
2023/02/14 11:45:26;;;;;;;4.10;1.90;;;;;;;4.00;68.44;99032.02;80834;1293;3049298;-58
2023/02/14 11:48:24;;;;;;;5.20;2.00;;;;;;;4.03;68.29;99035.00;82128;1295;3012398;-58
2023/02/14 11:51:05;;;;;;;2.90;1.60;;;;;;;3.81;68.51;99044.70;80848;1298;3053130;-58
2023/02/14 11:53:39;;;;;;;4.30;1.70;;;;;;;3.54;69.36;99038.34;80767;1301;3052319;-58
2023/02/14 11:56:05;;;;;;;3.10;1.30;;;;;;;3.43;70.03;99032.65;82037;1296;3011226;-58
2023/02/14 11:58:36;;;;;;;3.50;1.70;;;;;;;3.46;70.43;99027.04;80868;1295;3052097;-58
2023/02/14 12:01:03;;;;;;;5.70;2.40;;;;;;;3.49;70.56;99049.27;82089;1294;3011144;-60
2023/02/14 12:03:37;;;;;;;6.60;2.30;;;;;;;3.47;70.85;99040.30;81544;1295;3011295;-58